createdAt,value
2022-10-28T00:01:51.719Z,22.63
2022-10-28T00:04:20.164Z,20.65
2022-10-28T00:06:48.741Z,18.02
2022-10-28T00:09:17.459Z,19.85
2022-10-28T00:11:45.854Z,20.50
2022-10-28T00:14:15.758Z,20.30
2022-10-28T00:16:44.185Z,26.08
2022-10-28T00:19:13.922Z,22.23
2022-10-28T00:21:44.374Z,20.55
2022-10-28T00:24:14.445Z,22.40
2022-10-28T00:26:44.012Z,21.63
2022-10-28T00:29:14.922Z,25.55
2022-10-28T00:31:45.425Z,22.90
2022-10-28T00:34:15.308Z,21.95
2022-10-28T00:36:44.932Z,21.45
2022-10-28T00:39:15.091Z,23.60
2022-10-28T00:41:45.442Z,21.52
2022-10-28T00:44:53.337Z,20.77
2022-10-28T00:47:30.780Z,23.45
2022-10-28T00:50:05.448Z,19.88
2022-10-28T00:52:34.141Z,17.85
2022-10-28T00:55:10.350Z,22.83
2022-10-28T00:57:39.455Z,17.63
2022-10-28T01:00:09.469Z,17.00
2022-10-28T01:02:48.451Z,17.92
2022-10-28T01:05:19.208Z,17.58
2022-10-28T01:07:47.741Z,15.95
2022-10-28T01:10:16.619Z,15.85
2022-10-28T01:12:57.461Z,15.45
2022-10-28T01:15:31.558Z,16.10
2022-10-28T01:18:08.103Z,13.93
2022-10-28T01:20:50.656Z,15.48
2022-10-28T01:23:24.751Z,15.50
2022-10-28T01:26:18.517Z,14.98
2022-10-28T01:29:24.668Z,13.88
2022-10-28T01:31:56.011Z,16.13
2022-10-28T01:34:30.356Z,14.38
2022-10-28T01:37:02.052Z,14.15
2022-10-28T01:39:34.798Z,16.88
2022-10-28T01:42:13.193Z,13.32
2022-10-28T01:44:48.065Z,14.75
2022-10-28T01:47:18.704Z,16.42
2022-10-28T01:49:49.781Z,14.90
2022-10-28T01:52:22.427Z,12.73
2022-10-28T01:54:52.967Z,12.75
2022-10-28T01:57:21.357Z,14.45
2022-10-28T01:59:50.028Z,15.07
2022-10-28T02:02:20.287Z,14.38
2022-10-28T02:04:48.663Z,14.10
2022-10-28T02:07:18.063Z,15.43
2022-10-28T02:09:56.842Z,13.70
2022-10-28T02:12:30.270Z,12.88
2022-10-28T02:15:32.488Z,17.58
2022-10-28T02:18:27.632Z,13.07
2022-10-28T02:20:57.795Z,15.02
2022-10-28T02:23:30.783Z,14.40
2022-10-28T02:26:02.552Z,13.70
2022-10-28T02:28:42.278Z,14.27
2022-10-28T02:31:18.421Z,12.95
2022-10-28T02:33:52.839Z,14.52
2022-10-28T02:36:23.462Z,12.95
2022-10-28T02:38:54.763Z,14.20
2022-10-28T02:41:26.851Z,14.13
2022-10-28T02:43:57.307Z,12.15
2022-10-28T02:46:26.299Z,16.13
2022-10-28T02:48:57.714Z,13.10
2022-10-28T02:51:30.360Z,11.63
2022-10-28T02:54:03.583Z,11.52
2022-10-28T02:56:34.862Z,11.20
2022-10-28T02:59:03.242Z,9.50
2022-10-28T03:01:31.796Z,12.80
2022-10-28T03:04:01.712Z,14.32
2022-10-28T03:06:30.169Z,11.77
2022-10-28T03:08:58.750Z,11.80
2022-10-28T03:11:27.218Z,13.27
2022-10-28T03:13:55.601Z,12.02
2022-10-28T03:16:24.025Z,12.95
2022-10-28T03:18:52.457Z,15.57
2022-10-28T03:21:22.315Z,12.43
2022-10-28T03:23:50.625Z,11.25
2022-10-28T03:26:18.924Z,12.73
2022-10-28T03:28:47.590Z,13.65
2022-10-28T03:31:17.232Z,15.60
2022-10-28T03:33:45.599Z,12.98
2022-10-28T03:36:13.895Z,11.68
2022-10-28T03:38:43.657Z,11.02
2022-10-28T03:41:11.954Z,12.82
2022-10-28T03:43:40.256Z,11.60
2022-10-28T03:46:08.612Z,13.05
2022-10-28T03:48:36.950Z,19.00
2022-10-28T03:51:05.615Z,15.43
2022-10-28T03:53:33.984Z,14.27
2022-10-28T03:56:04.564Z,14.05
2022-10-28T03:58:35.096Z,14.50
2022-10-28T04:01:05.957Z,13.18
2022-10-28T04:03:34.452Z,10.65
2022-10-28T04:06:02.777Z,11.68
2022-10-28T04:08:31.130Z,14.57
2022-10-28T04:10:59.473Z,14.20
2022-10-28T04:13:29.405Z,12.48
2022-10-28T04:15:57.789Z,13.18
2022-10-28T04:18:26.344Z,13.57
2022-10-28T04:20:54.856Z,15.80
2022-10-28T04:23:23.329Z,16.45
2022-10-28T04:25:55.386Z,15.07
2022-10-28T04:28:24.642Z,12.52
2022-10-28T04:30:54.462Z,12.35
2022-10-28T04:33:22.799Z,12.70
2022-10-28T04:35:51.350Z,15.95
2022-10-28T04:38:19.725Z,13.73
2022-10-28T04:40:49.225Z,13.20
2022-10-28T04:43:17.737Z,12.93
2022-10-28T04:45:47.624Z,14.90
2022-10-28T04:48:17.420Z,13.50
2022-10-28T04:50:45.966Z,17.73
2022-10-28T04:53:14.652Z,15.82
2022-10-28T04:55:43.013Z,17.75
2022-10-28T04:58:11.765Z,15.75
2022-10-28T05:00:40.121Z,14.57
2022-10-28T05:03:08.457Z,17.40
2022-10-28T05:05:38.491Z,14.70
2022-10-28T05:08:07.360Z,16.27
2022-10-28T05:10:37.203Z,21.13
2022-10-28T05:13:05.578Z,20.70
2022-10-28T05:15:34.042Z,16.55
2022-10-28T05:18:02.424Z,18.50
2022-10-28T05:20:30.807Z,16.77
2022-10-28T05:23:00.834Z,15.68
2022-10-28T05:25:29.464Z,18.55
2022-10-28T05:28:00.496Z,16.98
2022-10-28T05:30:29.381Z,17.75
2022-10-28T05:33:02.536Z,18.15
2022-10-28T05:35:31.115Z,17.42
2022-10-28T05:38:00.944Z,21.63
2022-10-28T05:40:29.371Z,17.60
2022-10-28T05:42:57.703Z,15.77
2022-10-28T05:45:26.164Z,18.13
2022-10-28T05:47:54.931Z,20.52
2022-10-28T05:50:23.599Z,16.23
2022-10-28T05:52:54.688Z,19.63
2022-10-28T05:55:25.771Z,19.70
2022-10-28T05:57:54.557Z,19.88
2022-10-28T06:00:24.345Z,17.05
2022-10-28T06:02:52.954Z,21.70
2022-10-28T06:05:21.703Z,17.92
2022-10-28T06:07:50.030Z,18.50
2022-10-28T06:10:18.390Z,17.15
2022-10-28T06:12:46.554Z,18.35
2022-10-28T06:15:15.039Z,23.35
2022-10-28T06:17:43.609Z,20.58
2022-10-28T06:20:12.064Z,18.77
2022-10-28T06:22:47.287Z,16.88
2022-10-28T06:25:15.775Z,17.83
2022-10-28T06:27:45.774Z,21.05
2022-10-28T06:30:14.653Z,16.20
2022-10-28T06:32:44.249Z,20.40
2022-10-28T06:35:12.652Z,23.45
2022-10-28T06:37:41.031Z,21.20
2022-10-28T06:40:10.215Z,19.63
2022-10-28T06:42:39.412Z,19.25
2022-10-28T06:45:09.853Z,23.92
2022-10-28T06:47:41.507Z,18.67
2022-10-28T06:50:10.774Z,16.65
2022-10-28T06:52:39.183Z,22.83
2022-10-28T06:55:08.302Z,17.05
2022-10-28T06:57:36.679Z,23.38
2022-10-28T07:00:05.697Z,23.17
2022-10-28T07:02:35.553Z,22.05
2022-10-28T07:05:04.044Z,17.65
2022-10-28T07:07:32.520Z,21.13
2022-10-28T07:10:01.315Z,21.58
2022-10-28T07:12:29.813Z,27.08
2022-10-28T07:14:58.146Z,20.85
2022-10-28T07:17:29.382Z,24.13
2022-10-28T07:19:59.205Z,23.83
2022-10-28T07:22:27.531Z,23.08
2022-10-28T07:24:55.976Z,23.25
2022-10-28T07:27:24.331Z,17.92
2022-10-28T07:29:52.715Z,22.83
2022-10-28T07:32:21.070Z,21.88
2022-10-28T07:34:49.474Z,21.60
2022-10-28T07:37:19.238Z,20.85
2022-10-28T07:39:47.615Z,17.67
2022-10-28T07:42:16.153Z,20.17
2022-10-28T07:44:44.541Z,19.65
2022-10-28T07:47:13.014Z,17.55
2022-10-28T07:49:41.417Z,16.67
2022-10-28T07:52:10.712Z,21.17
2022-10-28T07:54:42.715Z,20.17
2022-10-28T07:57:11.165Z,16.45
2022-10-28T07:59:41.760Z,18.85
2022-10-28T08:02:12.120Z,15.95
2022-10-28T08:04:40.846Z,20.98
2022-10-28T08:07:09.256Z,22.88
2022-10-28T08:09:37.598Z,20.17
2022-10-28T08:12:08.408Z,16.80
2022-10-28T08:14:36.817Z,17.95
2022-10-28T08:17:05.459Z,22.02
2022-10-28T08:19:33.885Z,19.17
2022-10-28T08:22:03.081Z,17.15
2022-10-28T08:24:31.468Z,20.27
2022-10-28T08:26:59.966Z,20.88
2022-10-28T08:29:30.143Z,21.92
2022-10-28T08:31:59.600Z,27.13
2022-10-28T08:34:30.064Z,23.48
2022-10-28T08:36:59.116Z,19.90
2022-10-28T08:39:27.693Z,18.05
2022-10-28T08:42:03.962Z,20.92
2022-10-28T08:44:47.394Z,23.98
2022-10-28T08:47:23.282Z,22.25
2022-10-28T08:49:56.371Z,20.02
2022-10-28T08:52:29.873Z,21.98
2022-10-28T08:55:02.223Z,24.77
2022-10-28T08:57:37.950Z,23.00
2022-10-28T09:00:13.599Z,23.65
2022-10-28T09:02:54.419Z,26.85
2022-10-28T09:05:27.719Z,21.40
2022-10-28T09:07:57.327Z,21.75
2022-10-28T09:10:40.950Z,19.85
2022-10-28T09:13:17.147Z,25.38
2022-10-28T09:15:53.822Z,24.50
2022-10-28T09:18:27.684Z,22.65
2022-10-28T09:20:57.516Z,22.20
2022-10-28T09:23:29.335Z,21.95
2022-10-28T09:26:07.158Z,19.98
2022-10-28T09:28:47.901Z,21.83
2022-10-28T09:31:21.950Z,25.35
2022-10-28T09:34:03.032Z,25.80
2022-10-28T09:36:34.515Z,19.95
2022-10-28T09:39:03.460Z,21.05
2022-10-28T09:41:34.201Z,16.60
2022-10-28T09:44:10.067Z,22.70
2022-10-28T09:46:40.679Z,19.15
2022-10-28T09:49:13.881Z,21.25
2022-10-28T09:51:47.552Z,20.35
2022-10-28T09:54:15.905Z,22.48
2022-10-28T09:56:44.294Z,19.00
2022-10-28T09:59:15.566Z,22.33
2022-10-28T10:01:47.888Z,23.17
2022-10-28T10:04:20.993Z,25.45
2022-10-28T10:06:53.353Z,23.70
2022-10-28T10:09:25.326Z,19.05
2022-10-28T10:11:55.612Z,22.40
2022-10-28T10:14:30.460Z,20.60
2022-10-28T10:17:03.109Z,15.88
2022-10-28T10:20:07.070Z,18.40
2022-10-28T10:22:36.661Z,20.85
2022-10-28T10:25:05.838Z,19.42
2022-10-28T10:27:34.423Z,15.45
2022-10-28T10:30:02.880Z,15.05
2022-10-28T10:32:33.596Z,10.57
2022-10-28T10:35:04.278Z,16.05
2022-10-28T10:37:35.778Z,11.63
2022-10-28T10:40:13.866Z,16.23
2022-10-28T10:42:51.705Z,14.23
2022-10-28T10:45:30.521Z,11.73
2022-10-28T10:48:14.279Z,13.80
2022-10-28T10:50:43.178Z,10.32
2022-10-28T10:53:21.327Z,12.18
2022-10-28T10:55:58.773Z,7.85
2022-10-28T10:58:30.413Z,11.93
2022-10-28T11:01:01.889Z,6.70
2022-10-28T11:03:35.078Z,7.25
2022-10-28T11:06:22.675Z,7.50
2022-10-28T11:08:56.392Z,7.38
2022-10-28T11:11:34.055Z,8.45
2022-10-28T11:14:08.774Z,7.03
2022-10-28T11:16:49.221Z,11.35
2022-10-28T11:19:23.067Z,10.43
2022-10-28T11:22:18.303Z,12.98
2022-10-28T11:25:06.828Z,9.82
2022-10-28T11:27:41.718Z,10.50
2022-10-28T11:30:15.179Z,11.13
2022-10-28T11:33:01.957Z,12.95
2022-10-28T11:35:50.520Z,8.55
2022-10-28T11:38:44.645Z,10.30
2022-10-28T11:41:22.243Z,8.30
2022-10-28T11:43:55.072Z,9.63
2022-10-28T11:46:36.787Z,6.30
2022-10-28T11:49:25.688Z,13.00
2022-10-28T11:51:59.095Z,7.63
2022-10-28T11:54:39.177Z,7.45
2022-10-28T11:57:10.312Z,13.75
2022-10-28T11:59:57.100Z,8.75
2022-10-28T12:02:41.317Z,10.88
2022-10-28T12:05:18.835Z,11.18
2022-10-28T12:07:59.240Z,7.13
2022-10-28T12:10:37.154Z,7.72
2022-10-28T12:13:12.290Z,10.38
2022-10-28T12:15:47.013Z,7.65
2022-10-28T12:18:20.045Z,10.77
2022-10-28T12:20:53.118Z,8.43
2022-10-28T12:23:25.146Z,9.82
2022-10-28T12:25:57.461Z,14.90
2022-10-28T12:28:29.426Z,11.15
2022-10-28T12:30:58.106Z,10.90
2022-10-28T12:33:29.489Z,10.13
2022-10-28T12:36:19.414Z,13.07
2022-10-28T12:38:55.469Z,8.13
2022-10-28T12:41:25.621Z,10.52
2022-10-28T12:43:56.944Z,13.15
2022-10-28T12:46:32.551Z,17.58
2022-10-28T12:49:06.153Z,14.45
2022-10-28T12:51:38.777Z,12.50
2022-10-28T12:54:18.612Z,12.00
2022-10-28T12:56:52.900Z,11.85
2022-10-28T12:59:25.574Z,12.98
2022-10-28T13:01:54.192Z,9.25
2022-10-28T13:04:22.654Z,11.23
2022-10-28T13:07:10.025Z,8.45
2022-10-28T13:09:51.017Z,9.50
2022-10-28T13:12:36.161Z,10.95
2022-10-28T13:15:25.797Z,12.50
2022-10-28T13:18:06.487Z,11.93
2022-10-28T13:20:45.429Z,10.15
2022-10-28T13:23:22.304Z,11.90
2022-10-28T13:25:59.368Z,15.05
2022-10-28T13:28:31.012Z,14.80
2022-10-28T13:31:00.969Z,10.23
2022-10-28T13:33:31.167Z,10.15
2022-10-28T13:36:10.966Z,14.00
2022-10-28T13:38:40.217Z,13.07
2022-10-28T13:41:37.754Z,10.98
2022-10-28T13:44:27.811Z,11.40
2022-10-28T13:47:27.374Z,12.98
2022-10-28T13:50:33.778Z,16.75
2022-10-28T13:53:42.606Z,8.32
2022-10-28T13:56:31.474Z,15.25
2022-10-28T13:59:01.074Z,10.85
2022-10-28T14:02:32.462Z,12.90
2022-10-28T14:05:01.123Z,14.55
2022-10-28T14:07:31.902Z,12.13
2022-10-28T14:10:19.242Z,10.93
2022-10-28T14:12:53.076Z,13.55
2022-10-28T14:15:31.962Z,11.88
2022-10-28T14:18:16.089Z,12.63
2022-10-28T14:20:59.304Z,11.82
2022-10-28T14:24:08.580Z,10.93
2022-10-28T14:27:25.588Z,11.23
2022-10-28T14:30:23.008Z,15.75
2022-10-28T14:33:11.582Z,9.65
2022-10-28T14:35:42.079Z,9.60
2022-10-28T14:38:42.742Z,9.88
2022-10-28T14:41:21.844Z,8.85
2022-10-28T14:43:59.279Z,9.68
2022-10-28T14:46:42.374Z,10.32
2022-10-28T14:49:19.349Z,8.70
2022-10-28T14:51:48.302Z,8.25
2022-10-28T14:54:17.950Z,11.02
2022-10-28T14:56:49.186Z,10.30
2022-10-28T14:59:27.002Z,9.35
2022-10-28T15:02:01.881Z,14.68
2022-10-28T15:04:31.396Z,11.35
2022-10-28T15:07:00.242Z,9.88
2022-10-28T15:09:30.139Z,11.82
2022-10-28T15:12:00.439Z,9.52
2022-10-28T15:14:32.406Z,10.27
2022-10-28T15:17:11.196Z,7.90
2022-10-28T15:19:39.730Z,10.18
2022-10-28T15:22:14.787Z,13.90
2022-10-28T15:24:46.333Z,9.35
2022-10-28T15:27:15.930Z,11.23
2022-10-28T15:29:44.570Z,12.02
2022-10-28T15:32:17.067Z,10.73
2022-10-28T15:34:45.596Z,8.80
2022-10-28T15:37:18.310Z,9.25
2022-10-28T15:39:47.157Z,14.10
2022-10-28T15:42:40.521Z,11.25
2022-10-28T15:45:17.997Z,11.43
2022-10-28T15:47:49.173Z,12.98
2022-10-28T15:50:27.310Z,11.15
2022-10-28T15:52:57.559Z,10.63
2022-10-28T15:56:02.450Z,10.65
2022-10-28T15:58:33.111Z,16.67
2022-10-28T16:01:01.546Z,11.40
2022-10-28T16:03:43.240Z,11.32
2022-10-28T16:06:25.914Z,12.15
2022-10-28T16:09:16.431Z,12.13
2022-10-28T16:11:47.528Z,12.35
2022-10-28T16:14:31.825Z,14.80
2022-10-28T16:19:42.867Z,16.65
2022-10-28T16:22:13.629Z,16.52
2022-10-28T16:24:42.238Z,13.77
2022-10-28T16:27:17.376Z,13.95
2022-10-28T16:29:45.725Z,13.65
2022-10-28T16:32:15.372Z,15.25
2022-10-28T16:34:45.471Z,14.20
2022-10-28T16:37:22.219Z,14.18
2022-10-28T16:39:50.755Z,12.40
2022-10-28T16:42:19.549Z,13.57
2022-10-28T16:44:48.044Z,12.77
2022-10-28T16:47:17.914Z,14.88
2022-10-28T16:49:52.609Z,16.23
2022-10-28T16:52:26.473Z,13.40
2022-10-28T16:54:54.876Z,16.23
2022-10-28T16:59:52.588Z,11.75
2022-10-28T17:02:23.835Z,13.38
2022-10-28T17:04:53.771Z,12.88
2022-10-28T17:07:22.157Z,13.93
2022-10-28T17:09:52.072Z,13.90
2022-10-28T17:12:23.016Z,9.75
2022-10-28T17:14:51.461Z,15.00
2022-10-28T17:17:20.334Z,16.70
2022-10-28T17:19:48.731Z,13.68
2022-10-28T17:22:18.543Z,12.70
2022-10-28T17:24:47.099Z,9.93
2022-10-28T17:27:15.524Z,13.93
2022-10-28T17:29:43.923Z,10.23
2022-10-28T17:32:12.393Z,13.15
2022-10-28T17:34:40.872Z,12.35
2022-10-28T17:37:10.520Z,11.70
2022-10-28T17:39:40.393Z,11.80
2022-10-28T17:42:08.769Z,13.13
2022-10-28T17:44:37.385Z,14.07
2022-10-28T17:47:05.831Z,12.73
2022-10-28T17:49:36.600Z,10.88
2022-10-28T17:52:04.999Z,9.50
2022-10-28T17:54:33.449Z,13.45
2022-10-28T17:57:03.203Z,11.32
2022-10-28T17:59:31.810Z,10.43
2022-10-28T18:02:00.343Z,9.45
2022-10-28T18:04:28.784Z,10.27
2022-10-28T18:06:58.284Z,13.02
2022-10-28T18:09:27.843Z,12.15
2022-10-28T18:11:56.260Z,12.75
2022-10-28T18:14:26.038Z,10.07
2022-10-28T18:16:54.387Z,11.55
2022-10-28T18:19:22.763Z,11.70
2022-10-28T18:21:51.174Z,12.20
2022-10-28T18:24:23.317Z,16.10
2022-10-28T18:26:56.077Z,12.75
2022-10-28T18:29:25.939Z,10.70
2022-10-28T18:31:54.310Z,12.60
2022-10-28T18:34:23.884Z,10.35
2022-10-28T18:36:52.969Z,15.95
2022-10-28T18:39:21.417Z,10.25
2022-10-28T18:41:52.123Z,10.07
2022-10-28T18:44:24.311Z,13.95
2022-10-28T18:46:54.072Z,12.23
2022-10-28T18:49:22.486Z,13.90
2022-10-28T18:51:50.944Z,13.48
2022-10-28T18:54:19.327Z,17.25
2022-10-28T18:56:48.033Z,15.18
2022-10-28T18:59:17.483Z,13.90
2022-10-28T19:01:47.207Z,14.80
2022-10-28T19:04:17.157Z,14.18
2022-10-28T19:06:47.073Z,8.93
2022-10-28T19:09:15.743Z,11.57
2022-10-28T19:11:46.260Z,13.27
2022-10-28T19:14:14.718Z,16.45
2022-10-28T19:16:43.050Z,12.50
2022-10-28T19:19:11.397Z,10.77
2022-10-28T19:21:41.105Z,13.40
2022-10-28T19:24:09.954Z,13.60
2022-10-28T19:26:39.456Z,16.77
2022-10-28T19:29:07.892Z,16.20
2022-10-28T19:31:39.143Z,18.40
2022-10-28T19:34:07.625Z,14.15
2022-10-28T19:36:35.954Z,17.15
2022-10-28T19:39:05.872Z,13.80
2022-10-28T19:41:34.348Z,12.52
2022-10-28T19:44:03.554Z,17.48
2022-10-28T19:46:33.000Z,14.10
2022-10-28T19:49:03.334Z,18.70
2022-10-28T19:51:36.128Z,15.57
2022-10-28T19:54:07.367Z,17.63
2022-10-28T19:56:36.524Z,16.20
2022-10-28T19:59:06.301Z,20.77
2022-10-28T20:01:36.766Z,14.38
2022-10-28T20:04:05.767Z,19.20
2022-10-28T20:06:35.704Z,14.85
2022-10-28T20:09:06.078Z,14.45
2022-10-28T20:11:36.298Z,19.90
2022-10-28T20:14:06.354Z,18.75
2022-10-28T20:16:34.777Z,23.00
2022-10-28T20:19:03.433Z,21.60
2022-10-28T20:21:33.400Z,17.60
2022-10-28T20:24:02.774Z,20.58
2022-10-28T20:26:34.521Z,16.50
2022-10-28T20:29:03.354Z,16.42
2022-10-28T20:31:32.939Z,18.92
2022-10-28T20:34:03.916Z,16.38
2022-10-28T20:36:34.061Z,16.23
2022-10-28T20:39:04.065Z,18.02
2022-10-28T20:41:35.520Z,19.63
2022-10-28T20:44:04.095Z,15.95
2022-10-28T20:46:32.582Z,18.55
2022-10-28T20:49:01.315Z,17.92
2022-10-28T20:51:31.378Z,18.23
2022-10-28T20:53:59.918Z,16.33
2022-10-28T20:56:30.180Z,17.77
2022-10-28T20:59:00.425Z,23.23
2022-10-28T21:01:29.943Z,15.93
2022-10-28T21:04:00.601Z,20.08
2022-10-28T21:06:29.485Z,18.40
2022-10-28T21:08:58.565Z,19.23
2022-10-28T21:11:27.982Z,16.45
2022-10-28T21:13:59.400Z,15.23
2022-10-28T21:16:30.348Z,17.05
2022-10-28T21:18:59.275Z,19.75
2022-10-28T21:21:27.789Z,16.17
2022-10-28T21:23:56.649Z,18.42
2022-10-28T21:26:26.801Z,20.15
2022-10-28T21:28:56.574Z,23.08
2022-10-28T21:31:25.462Z,16.90
2022-10-28T21:33:55.198Z,18.05
2022-10-28T21:36:24.380Z,19.00
2022-10-28T21:38:55.907Z,19.23
2022-10-28T21:41:25.107Z,18.15
2022-10-28T21:43:54.484Z,16.27
2022-10-28T21:46:24.214Z,16.50
2022-10-28T21:48:55.160Z,16.50
2022-10-28T21:51:23.681Z,20.30
2022-10-28T21:53:52.115Z,16.83
2022-10-28T21:56:21.326Z,17.88
2022-10-28T21:58:50.659Z,15.90
2022-10-28T22:01:20.524Z,15.57
2022-10-28T22:03:49.147Z,12.75
2022-10-28T22:06:18.963Z,16.40
2022-10-28T22:08:47.333Z,15.80
2022-10-28T22:11:17.790Z,15.15
2022-10-28T22:13:46.474Z,15.82
2022-10-28T22:16:16.482Z,15.90
2022-10-28T22:18:45.544Z,15.55
2022-10-28T22:21:15.295Z,15.15
2022-10-28T22:23:45.321Z,14.60
2022-10-28T22:26:15.404Z,14.35
2022-10-28T22:28:44.240Z,18.38
2022-10-28T22:31:14.887Z,15.55
2022-10-28T22:33:43.786Z,15.02
2022-10-28T22:36:14.017Z,17.23
2022-10-28T22:38:44.398Z,20.45
2022-10-28T22:41:14.444Z,16.65
2022-10-28T22:43:43.698Z,14.23
2022-10-28T22:46:13.402Z,15.73
2022-10-28T22:48:42.294Z,20.52
2022-10-28T22:51:10.949Z,16.30
2022-10-28T22:53:40.119Z,13.80
2022-10-28T22:56:13.235Z,15.57
2022-10-28T22:58:41.611Z,14.52
2022-10-28T23:01:12.298Z,16.85
2022-10-28T23:03:42.553Z,15.13
2022-10-28T23:06:14.876Z,14.85
2022-10-28T23:08:44.924Z,16.17
2022-10-28T23:11:15.278Z,15.65
2022-10-28T23:13:43.841Z,18.98
2022-10-28T23:16:14.382Z,15.15
2022-10-28T23:18:49.366Z,13.98
2022-10-28T23:21:21.165Z,16.55
2022-10-28T23:23:54.216Z,16.27
2022-10-28T23:26:24.358Z,16.85
2022-10-28T23:28:53.656Z,16.05
2022-10-28T23:31:22.987Z,13.38
2022-10-28T23:33:51.430Z,13.38
2022-10-28T23:36:20.911Z,13.00
2022-10-28T23:38:49.399Z,13.65
2022-10-28T23:41:19.425Z,16.52
2022-10-28T23:43:49.965Z,12.55
2022-10-28T23:46:18.655Z,11.75
2022-10-28T23:48:48.318Z,15.95
2022-10-28T23:51:16.705Z,14.88
2022-10-28T23:53:45.972Z,12.68
2022-10-28T23:56:14.381Z,13.65
2022-10-28T23:58:44.173Z,12.55
